PRG weather

Václav Havel Airport Prague
Prague, Prague (capital city), Czechia

Public forecast

Using degrees Celsius for public forecast. Weather courtesy of forecast.io.

METAR (pilot weather report)

Retrieved 2017/08/16 18:30 UTC (5 minutes ago):

LKPR 161830Z 06008KT CAVOK 18/15 Q1022 NOSIG

TAF (pilot weather forecast)

Retrieved 2017/08/16 18:15 UTC (20 minutes ago):

TAF LKPR 161700Z 1618/1800 VRB02KT CAVOK PROB30 TEMPO 1701/1705 2000 BR NSC BECMG 1707/1710 12005KT 9999 SCT035 TEMPO 1717/1719 7000 SHRA SCT027TCU BKN030 BECMG 1719/1721 24005KT CAVOK